Time;durP1;ratioP1;P1;durP2;ratioP2;P2;SDS_P1;SDS_P2;PMS_P1;PMS_P2;Temp;Humidity;BMP_temperature;BMP_pressure;BME280_temperature;BME280_humidity;BME280_pressure;Samples;Min_cycle;Max_cycle;Signal;HPM_P1;HPM_P2
2023/09/14 00:01:55;;;;;;;1.13;0.82;;;17.20;65.90;;;;;;5062983;28;20110;-50
2023/09/14 00:04:21;;;;;;;1.30;0.73;;;17.20;65.90;;;;;;5060503;28;20129;-49
2023/09/14 00:06:51;;;;;;;1.17;0.90;;;17.20;65.90;;;;;;5061497;28;20036;-50
2023/09/14 00:09:20;;;;;;;2.65;1.08;;;17.20;66.10;;;;;;5069402;28;20036;-51
2023/09/14 00:11:49;;;;;;;2.15;1.00;;;17.10;66.10;;;;;;5064266;28;20079;-50
2023/09/14 00:14:17;;;;;;;1.52;1.15;;;17.10;66.20;;;;;;5063716;28;20115;-53
2023/09/14 00:16:43;;;;;;;1.48;1.10;;;17.10;66.30;;;;;;5069890;28;20033;-50
2023/09/14 00:19:10;;;;;;;1.33;1.00;;;17.10;66.40;;;;;;5067205;28;20037;-49
2023/09/14 00:21:39;;;;;;;1.38;1.13;;;17.10;66.40;;;;;;5058073;28;20064;-53
2023/09/14 00:24:06;;;;;;;1.83;0.80;;;17.10;66.40;;;;;;5068545;28;20039;-49
2023/09/14 00:26:35;;;;;;;1.52;1.33;;;17.10;66.50;;;;;;5068279;28;20037;-52
2023/09/14 00:29:06;;;;;;;1.70;1.15;;;17.10;66.60;;;;;;5065837;28;20039;-52
2023/09/14 00:31:34;;;;;;;1.80;1.05;;;17.20;66.70;;;;;;5056923;28;21570;-52
2023/09/14 00:34:00;;;;;;;2.60;1.50;;;17.00;66.60;;;;;;5048342;28;20040;-50
2023/09/14 00:36:30;;;;;;;3.17;1.73;;;17.10;66.80;;;;;;5055505;28;20047;-50
2023/09/14 00:38:58;;;;;;;1.42;1.30;;;17.10;66.80;;;;;;5051421;28;20054;-52
2023/09/14 00:41:24;;;;;;;3.80;1.50;;;17.00;66.70;;;;;;5057938;28;20163;-52
2023/09/14 00:43:56;;;;;;;1.40;1.20;;;17.00;66.70;;;;;;5059863;28;20616;-52
2023/09/14 00:46:23;;;;;;;2.40;1.25;;;17.00;66.80;;;;;;5044602;28;20049;-53
2023/09/14 00:48:53;;;;;;;2.47;1.40;;;17.00;66.60;;;;;;5069087;28;20044;-49
2023/09/14 00:51:20;;;;;;;1.88;1.48;;;17.00;66.60;;;;;;5067429;28;20670;-50
2023/09/14 00:53:50;;;;;;;1.42;0.98;;;17.00;66.50;;;;;;5063512;28;20107;-51
2023/09/14 00:56:18;;;;;;;1.13;1.00;;;17.00;66.60;;;;;;5069032;28;20040;-51
2023/09/14 00:58:47;;;;;;;3.45;1.17;;;17.00;66.60;;;;;;5069197;28;20112;-51
2023/09/14 01:01:16;;;;;;;1.23;1.10;;;17.00;66.60;;;;;;5051021;28;20033;-48
2023/09/14 01:03:43;;;;;;;2.25;1.38;;;16.90;66.70;;;;;;5066331;28;20047;-52
2023/09/14 01:06:11;;;;;;;1.35;0.93;;;16.90;66.70;;;;;;5063121;28;20052;-51
2023/09/14 01:08:42;;;;;;;1.70;1.17;;;16.90;66.80;;;;;;5068353;28;20106;-49
2023/09/14 01:11:10;;;;;;;1.00;0.90;;;17.00;66.80;;;;;;5068065;28;20039;-53
2023/09/14 01:14:00;;;;;;;2.65;1.17;;;17.00;66.80;;;;;;5062430;28;20069;-49
2023/09/14 01:16:35;;;;;;;2.03;1.15;;;17.00;66.90;;;;;;5051363;28;20084;-49
2023/09/14 01:19:15;;;;;;;1.70;1.10;;;17.00;66.80;;;;;;5067653;28;20558;-53
2023/09/14 01:22:06;;;;;;;1.52;0.80;;;17.00;66.80;;;;;;5055308;28;20044;-50
2023/09/14 01:24:49;;;;;;;0.75;0.75;;;17.00;67.00;;;;;;5063926;28;20561;-48
2023/09/14 01:27:20;;;;;;;5.40;1.30;;;17.00;66.90;;;;;;5064913;28;20103;-49
2023/09/14 01:29:50;;;;;;;1.83;1.30;;;17.00;66.70;;;;;;5060378;28;20567;-51
2023/09/14 01:32:24;;;;;;;1.67;1.20;;;16.90;66.50;;;;;;5048865;28;20100;-49
2023/09/14 01:34:50;;;;;;;1.67;1.33;;;16.90;66.40;;;;;;5065299;28;20044;-50
2023/09/14 01:37:18;;;;;;;3.08;1.70;;;16.90;66.30;;;;;;5051689;28;20411;-52
2023/09/14 01:39:48;;;;;;;3.53;2.28;;;16.90;66.30;;;;;;5041619;28;20079;-50
2023/09/14 01:42:15;;;;;;;2.10;1.13;;;16.80;66.20;;;;;;5064018;28;20036;-49
2023/09/14 01:44:43;;;;;;;2.83;1.20;;;16.80;66.30;;;;;;5049752;28;20036;-49
2023/09/14 01:47:13;;;;;;;2.95;1.20;;;16.80;66.40;;;;;;5068389;28;20055;-49
2023/09/14 01:49:45;;;;;;;1.65;1.50;;;16.80;66.50;;;;;;5049292;28;20048;-51
2023/09/14 01:52:16;;;;;;;2.65;1.40;;;16.70;66.50;;;;;;5050615;28;20055;-50
2023/09/14 01:54:43;;;;;;;2.53;1.20;;;16.70;66.60;;;;;;5049774;28;20036;-48
2023/09/14 01:57:12;;;;;;;1.95;1.50;;;16.70;66.40;;;;;;5049354;28;20045;-50
2023/09/14 01:59:41;;;;;;;6.85;1.73;;;16.60;67.10;;;;;;5049157;28;20052;-47
2023/09/14 02:02:07;;;;;;;2.33;1.50;;;16.60;66.40;;;;;;5067428;28;20491;-50
2023/09/14 02:04:34;;;;;;;1.52;1.42;;;16.60;66.30;;;;;;5063664;28;20143;-53
2023/09/14 02:07:03;;;;;;;1.48;1.38;;;16.50;66.40;;;;;;5069705;28;20039;-49
2023/09/14 02:09:38;;;;;;;2.08;1.35;;;16.50;66.40;;;;;;5070044;28;20102;-52
2023/09/14 02:12:07;;;;;;;2.08;1.35;;;16.50;66.30;;;;;;5072028;28;20031;-51
2023/09/14 02:14:34;;;;;;;2.92;1.30;;;16.50;66.40;;;;;;5052286;28;20044;-48
2023/09/14 02:17:01;;;;;;;3.53;1.23;;;16.40;66.30;;;;;;5057668;28;20043;-52
2023/09/14 02:19:31;;;;;;;1.20;1.10;;;16.40;66.40;;;;;;5068964;28;20044;-49
2023/09/14 02:21:58;;;;;;;1.52;1.27;;;16.30;67.00;;;;;;5070021;28;20075;-49
2023/09/14 02:24:24;;;;;;;1.73;1.60;;;16.30;66.40;;;;;;5067113;28;20051;-50
2023/09/14 02:26:56;;;;;;;2.60;1.00;;;16.30;66.40;;;;;;5072166;28;20443;-53
2023/09/14 02:29:26;;;;;;;4.65;1.50;;;16.30;66.50;;;;;;5067047;28;20131;-48
2023/09/14 02:31:59;;;;;;;2.75;1.23;;;16.20;66.50;;;;;;5063570;28;20041;-46
2023/09/14 02:34:25;;;;;;;2.15;1.13;;;16.20;66.60;;;;;;5062292;28;20441;-48
2023/09/14 02:36:54;;;;;;;2.03;1.50;;;16.20;66.80;;;;;;5056042;28;20041;-52
2023/09/14 02:39:21;;;;;;;1.55;1.23;;;16.20;66.90;;;;;;5067664;28;20037;-48
2023/09/14 02:41:50;;;;;;;2.45;1.23;;;16.10;66.80;;;;;;5053155;28;20048;-49
2023/09/14 02:44:19;;;;;;;1.30;1.20;;;16.10;66.80;;;;;;5050009;28;20047;-50
2023/09/14 02:46:46;;;;;;;1.83;1.20;;;16.10;66.80;;;;;;5050928;28;20079;-52
2023/09/14 02:49:17;;;;;;;3.72;1.20;;;16.10;66.80;;;;;;5067363;28;20783;-49
2023/09/14 02:51:43;;;;;;;0.80;0.80;;;16.10;66.80;;;;;;5070734;28;20041;-52
2023/09/14 02:54:12;;;;;;;1.10;0.95;;;16.00;66.80;;;;;;5068760;28;20067;-52
2023/09/14 02:56:42;;;;;;;0.80;0.80;;;16.00;66.90;;;;;;5053935;28;20036;-48
2023/09/14 02:59:16;;;;;;;2.33;1.40;;;16.00;66.80;;;;;;5069531;28;20041;-50
2023/09/14 03:01:58;;;;;;;1.30;1.00;;;16.00;66.80;;;;;;5048778;28;20041;-52
2023/09/14 03:04:28;;;;;;;4.82;1.33;;;16.00;66.70;;;;;;5065808;28;20159;-49
2023/09/14 03:06:56;;;;;;;1.50;0.80;;;16.00;66.80;;;;;;5068229;28;20044;-48
2023/09/14 03:09:24;;;;;;;1.70;1.00;;;15.90;66.70;;;;;;5070379;28;20040;-48
2023/09/14 03:11:50;;;;;;;2.20;0.98;;;15.90;66.70;;;;;;5052941;28;20048;-47
2023/09/14 03:14:17;;;;;;;1.25;1.08;;;15.90;66.80;;;;;;5068074;28;20047;-47
2023/09/14 03:16:51;;;;;;;2.00;1.10;;;15.80;66.60;;;;;;5053681;28;20040;-51
2023/09/14 03:19:20;;;;;;;4.15;1.05;;;15.90;66.70;;;;;;5052917;28;20044;-51
2023/09/14 03:21:49;;;;;;;1.90;1.30;;;15.90;66.60;;;;;;5048707;28;22202;-48
2023/09/14 03:24:16;;;;;;;3.10;1.58;;;15.80;66.60;;;;;;5054184;28;20063;-52
2023/09/14 03:26:46;;;;;;;2.00;1.60;;;15.80;66.70;;;;;;5065660;28;20119;-51
2023/09/14 03:29:13;;;;;;;2.95;1.60;;;15.80;66.80;;;;;;5062926;28;20091;-48
2023/09/14 03:31:42;;;;;;;1.80;1.35;;;15.80;66.80;;;;;;5058797;28;20453;-51
2023/09/14 03:34:12;;;;;;;2.88;1.70;;;15.70;66.80;;;;;;5054332;28;20047;-49
2023/09/14 03:36:39;;;;;;;2.83;1.48;;;15.70;66.90;;;;;;5065572;28;20045;-52
2023/09/14 03:39:08;;;;;;;3.22;1.80;;;15.70;66.90;;;;;;5065251;28;20048;-48
2023/09/14 03:41:36;;;;;;;2.45;2.20;;;15.70;66.80;;;;;;5068599;28;20487;-51
2023/09/14 03:44:08;;;;;;;2.33;2.00;;;15.60;66.80;;;;;;5059262;28;20037;-52
2023/09/14 03:46:39;;;;;;;6.00;1.88;;;15.70;66.90;;;;;;5059872;28;20139;-50
2023/09/14 03:49:06;;;;;;;4.65;1.98;;;15.60;66.80;;;;;;5070558;28;20115;-48
2023/09/14 03:51:36;;;;;;;2.17;1.88;;;15.60;66.90;;;;;;5067772;28;20044;-51
2023/09/14 03:54:05;;;;;;;3.42;1.67;;;15.60;66.90;;;;;;5055030;28;20044;-49
2023/09/14 03:56:39;;;;;;;2.17;1.60;;;15.60;66.90;;;;;;5063782;28;20079;-51
2023/09/14 03:59:06;;;;;;;2.72;1.75;;;15.60;66.90;;;;;;5052479;28;20071;-50
2023/09/14 04:01:36;;;;;;;3.85;2.13;;;15.50;67.10;;;;;;5046523;28;20770;-49
2023/09/14 04:04:05;;;;;;;3.17;1.90;;;15.50;67.10;;;;;;5049251;28;20044;-51
2023/09/14 04:06:34;;;;;;;3.05;1.85;;;15.50;67.20;;;;;;5046847;28;20066;-53
2023/09/14 04:09:03;;;;;;;2.15;1.83;;;15.50;67.20;;;;;;5052605;28;20041;-51
2023/09/14 04:11:32;;;;;;;2.30;2.10;;;15.50;67.20;;;;;;5051447;28;20072;-53
2023/09/14 04:14:02;;;;;;;1.83;1.70;;;15.50;67.30;;;;;;5041865;28;20036;-50
2023/09/14 04:16:30;;;;;;;4.55;1.80;;;15.50;67.20;;;;;;5067754;28;20040;-49
2023/09/14 04:19:02;;;;;;;3.38;1.63;;;15.50;67.20;;;;;;5052336;28;20508;-53
2023/09/14 04:21:30;;;;;;;3.30;1.80;;;15.50;67.20;;;;;;5054746;28;20102;-52
2023/09/14 04:24:04;;;;;;;2.47;1.80;;;15.40;67.10;;;;;;5051040;28;20036;-52
2023/09/14 04:26:33;;;;;;;4.80;1.67;;;15.40;67.10;;;;;;5060076;28;20083;-48
2023/09/14 04:29:00;;;;;;;2.58;1.70;;;15.40;67.00;;;;;;5068268;28;20036;-52
2023/09/14 04:31:34;;;;;;;2.05;1.30;;;15.40;67.00;;;;;;5059267;28;20468;-50
2023/09/14 04:34:02;;;;;;;2.72;1.80;;;15.40;67.10;;;;;;5058352;28;20525;-51
2023/09/14 04:36:32;;;;;;;1.67;1.35;;;15.40;67.10;;;;;;5064885;28;20032;-50
2023/09/14 04:39:04;;;;;;;1.90;1.60;;;15.30;67.20;;;;;;5064303;28;20033;-52
2023/09/14 04:41:31;;;;;;;;;;;15.30;67.40;;;;;;5059746;28;20128;-49
2023/09/14 04:43:58;;;;;;;1.33;1.23;;;15.40;67.50;;;;;;5064292;28;19924;-51
2023/09/14 04:46:25;;;;;;;3.17;2.03;;;15.40;67.10;;;;;;5046284;28;20635;-52
2023/09/14 04:48:52;;;;;;;2.05;1.67;;;15.30;67.10;;;;;;5046799;28;20791;-48
2023/09/14 04:51:22;;;;;;;3.40;1.55;;;15.30;67.20;;;;;;5054719;28;20067;-50
2023/09/14 04:53:49;;;;;;;2.17;1.73;;;15.30;67.30;;;;;;5046428;28;20041;-49
2023/09/14 04:56:15;;;;;;;3.78;1.92;;;15.30;67.50;;;;;;5064408;28;20498;-50
2023/09/14 04:58:45;;;;;;;2.08;1.90;;;15.30;67.50;;;;;;5051922;28;20047;-50
2023/09/14 05:01:12;;;;;;;3.45;2.08;;;15.30;67.60;;;;;;5068352;28;20659;-51
2023/09/14 05:03:40;;;;;;;2.65;1.70;;;15.30;67.60;;;;;;5044920;28;20609;-46
2023/09/14 05:06:08;;;;;;;3.95;1.80;;;15.30;67.70;;;;;;5062362;28;20044;-52
2023/09/14 05:08:35;;;;;;;3.42;1.90;;;15.30;67.90;;;;;;5059548;28;20056;-49
2023/09/14 05:11:03;;;;;;;3.63;1.88;;;15.30;68.00;;;;;;5050031;28;20055;-51
2023/09/14 05:13:30;;;;;;;6.07;2.60;;;15.30;68.10;;;;;;5055348;28;20135;-49
2023/09/14 05:15:57;;;;;;;3.20;2.53;;;15.30;68.20;;;;;;5059980;28;20040;-51
2023/09/14 05:18:26;;;;;;;7.80;3.22;;;15.30;68.30;;;;;;5065112;28;20041;-52
2023/09/14 05:20:53;;;;;;;3.53;2.42;;;15.40;68.50;;;;;;5059679;28;20048;-52
2023/09/14 05:23:20;;;;;;;4.80;2.50;;;15.40;68.50;;;;;;5063664;28;20139;-50
2023/09/14 05:25:47;;;;;;;4.40;2.30;;;15.40;68.70;;;;;;5059738;28;20051;-53
2023/09/14 05:28:14;;;;;;;5.63;2.58;;;15.40;68.80;;;;;;5057527;28;20502;-52
2023/09/14 05:30:43;;;;;;;4.55;2.03;;;15.40;69.00;;;;;;5052441;28;20049;-50
2023/09/14 05:33:10;;;;;;;4.10;3.00;;;15.40;69.10;;;;;;5046720;28;20426;-51
2023/09/14 05:35:37;;;;;;;3.45;2.90;;;15.50;69.30;;;;;;5061591;28;20131;-48
2023/09/14 05:38:05;;;;;;;5.13;2.50;;;15.50;69.40;;;;;;5049400;28;20414;-52
2023/09/14 05:40:32;;;;;;;2.92;2.35;;;15.50;69.50;;;;;;5048010;28;20138;-51
2023/09/14 05:42:59;;;;;;;3.50;2.80;;;15.50;69.60;;;;;;5051771;28;20106;-53
2023/09/14 05:45:27;;;;;;;3.25;2.55;;;15.60;69.60;;;;;;5066053;28;20041;-50
2023/09/14 05:47:55;;;;;;;2.85;2.65;;;15.60;69.60;;;;;;5063942;28;20087;-49
2023/09/14 05:50:23;;;;;;;2.70;2.50;;;15.60;69.50;;;;;;5070719;28;20040;-52
2023/09/14 05:52:50;;;;;;;4.13;2.53;;;15.70;69.60;;;;;;5053753;28;20037;-53
2023/09/14 05:55:18;;;;;;;5.53;2.75;;;15.70;69.50;;;;;;5065710;28;20048;-52
2023/09/14 05:57:45;;;;;;;6.38;2.80;;;15.70;69.30;;;;;;5062958;28;20131;-48
2023/09/14 06:00:13;;;;;;;3.75;3.08;;;15.80;69.40;;;;;;5071880;28;20036;-53
2023/09/14 06:02:45;;;;;;;3.40;2.53;;;15.70;69.40;;;;;;5059590;28;20096;-51
2023/09/14 06:05:13;;;;;;;5.25;3.45;;;15.80;69.40;;;;;;5046181;28;20507;-51
2023/09/14 06:07:53;;;;;;;4.07;3.10;;;15.80;69.50;;;;;;5067303;28;20083;-50
2023/09/14 06:10:20;;;;;;;5.50;3.50;;;15.80;69.50;;;;;;5051136;28;20064;-51
2023/09/14 06:12:50;;;;;;;5.65;3.10;;;15.80;69.50;;;;;;5069591;28;20087;-52
2023/09/14 06:15:16;;;;;;;4.50;3.50;;;15.90;69.80;;;;;;5060857;28;20166;-53
2023/09/14 06:17:47;;;;;;;5.15;3.40;;;15.90;69.90;;;;;;5068225;28;20052;-51
2023/09/14 06:20:14;;;;;;;5.13;4.15;;;15.90;70.00;;;;;;5068088;28;20127;-52
2023/09/14 06:22:41;;;;;;;6.70;4.50;;;15.90;70.20;;;;;;5065730;28;20033;-50
2023/09/14 06:25:08;;;;;;;7.35;3.65;;;16.00;70.40;;;;;;5060212;28;20453;-47
2023/09/14 06:27:35;;;;;;;5.00;3.78;;;16.00;70.50;;;;;;5065550;28;20045;-48
2023/09/14 06:30:02;;;;;;;6.15;3.45;;;16.00;70.60;;;;;;5067280;28;20044;-52
2023/09/14 06:32:29;;;;;;;5.93;3.40;;;16.10;70.60;;;;;;5070532;28;20098;-52
2023/09/14 06:34:55;;;;;;;5.43;4.03;;;16.10;70.60;;;;;;5059144;28;20080;-49
2023/09/14 06:37:22;;;;;;;4.95;3.63;;;16.10;70.60;;;;;;5065520;28;20037;-49
2023/09/14 06:39:49;;;;;;;4.97;3.70;;;16.20;70.80;;;;;;5071286;28;20041;-48
2023/09/14 06:42:15;;;;;;;8.38;4.43;;;16.20;70.80;;;;;;5069146;28;20037;-46
2023/09/14 06:44:42;;;;;;;6.25;4.05;;;16.20;71.20;;;;;;5066789;28;20130;-48
2023/09/14 06:47:09;;;;;;;5.38;3.78;;;16.30;71.50;;;;;;5067841;28;20410;-52
2023/09/14 06:49:36;;;;;;;7.65;4.53;;;16.30;71.60;;;;;;5068275;28;20047;-51
2023/09/14 06:52:05;;;;;;;5.03;4.22;;;16.40;71.70;;;;;;5066621;28;20129;-52
2023/09/14 06:54:32;;;;;;;6.28;4.40;;;16.40;71.90;;;;;;5055742;28;20041;-49
2023/09/14 06:56:59;;;;;;;7.25;4.50;;;16.50;71.80;;;;;;5070806;28;20139;-47
2023/09/14 06:59:25;;;;;;;10.63;6.28;;;16.60;71.90;;;;;;5071304;28;20039;-51
2023/09/14 07:01:52;;;;;;;6.93;4.75;;;16.60;72.00;;;;;;5063287;28;20111;-51
2023/09/14 07:04:19;;;;;;;11.18;5.80;;;16.60;72.30;;;;;;5063033;28;20041;-52
2023/09/14 07:06:46;;;;;;;8.30;5.22;;;16.70;72.50;;;;;;5066761;28;20498;-51
2023/09/14 07:09:15;;;;;;;6.15;5.03;;;16.70;72.50;;;;;;5066810;28;20413;-51
2023/09/14 07:11:41;;;;;;;8.48;4.32;;;16.80;72.60;;;;;;5068661;28;20037;-53
2023/09/14 07:14:08;;;;;;;6.35;4.63;;;16.80;72.60;;;;;;5061449;28;20071;-52
2023/09/14 07:16:35;;;;;;;7.60;4.72;;;16.80;72.70;;;;;;5070559;28;20072;-52
2023/09/14 07:19:02;;;;;;;8.45;4.95;;;16.90;72.90;;;;;;5066641;28;20029;-52
2023/09/14 07:21:32;;;;;;;9.15;5.68;;;17.00;72.90;;;;;;5051741;28;20033;-51
2023/09/14 07:24:03;;;;;;;6.75;4.88;;;17.00;72.90;;;;;;5057937;28;20127;-53
2023/09/14 07:26:30;;;;;;;10.70;5.18;;;17.00;72.90;;;;;;5070586;28;20569;-52
2023/09/14 07:28:56;;;;;;;8.85;5.22;;;17.10;73.00;;;;;;5066854;28;20091;-51
2023/09/14 07:31:23;;;;;;;7.15;5.22;;;17.20;73.20;;;;;;5064755;28;20106;-53
2023/09/14 07:33:50;;;;;;;9.30;5.43;;;17.20;73.30;;;;;;5059823;28;20055;-56
2023/09/14 07:36:18;;;;;;;9.38;6.20;;;17.20;73.30;;;;;;5064643;28;20045;-51
2023/09/14 07:38:45;;;;;;;9.70;5.07;;;17.30;73.50;;;;;;5050648;28;20093;-52
2023/09/14 07:41:14;;;;;;;10.05;6.00;;;17.40;73.50;;;;;;5068296;28;20041;-52
2023/09/14 07:43:41;;;;;;;5.72;4.35;;;17.40;73.50;;;;;;5068242;28;20051;-54
2023/09/14 07:46:07;;;;;;;6.03;3.85;;;17.50;73.60;;;;;;5059078;28;20036;-51
2023/09/14 07:48:35;;;;;;;7.40;3.55;;;17.50;73.60;;;;;;5067681;28;20152;-49
2023/09/14 07:51:02;;;;;;;4.53;3.67;;;17.60;73.60;;;;;;5067513;28;20048;-52
2023/09/14 07:53:29;;;;;;;7.97;3.92;;;17.60;73.30;;;;;;5060501;28;20108;-52
2023/09/14 07:55:55;;;;;;;7.65;4.47;;;17.70;73.50;;;;;;5067899;28;20098;-54
2023/09/14 07:58:22;;;;;;;14.48;4.07;;;17.70;73.60;;;;;;5070476;28;20041;-51
2023/09/14 08:00:49;;;;;;;11.13;4.00;;;17.80;73.60;;;;;;5063160;28;20041;-53
2023/09/14 08:03:16;;;;;;;6.30;4.15;;;17.80;73.40;;;;;;5062859;28;20119;-55
2023/09/14 08:05:42;;;;;;;10.73;4.78;;;17.90;73.40;;;;;;5060343;28;20115;-53
2023/09/14 08:08:10;;;;;;;6.03;4.50;;;17.90;73.60;;;;;;5067208;28;20041;-50
2023/09/14 08:10:36;;;;;;;6.68;4.22;;;18.00;73.50;;;;;;5068079;28;20061;-49
2023/09/14 08:13:03;;;;;;;11.10;4.30;;;18.00;73.50;;;;;;5067162;28;20067;-52
2023/09/14 08:15:30;;;;;;;7.35;4.10;;;18.10;73.50;;;;;;5060011;28;20045;-51
2023/09/14 08:17:57;;;;;;;6.88;5.03;;;18.10;73.60;;;;;;5069655;28;20047;-52
2023/09/14 08:20:23;;;;;;;8.15;4.55;;;18.20;73.40;;;;;;5067911;28;20036;-52
2023/09/14 08:22:50;;;;;;;8.98;4.75;;;18.20;73.40;;;;;;5061452;28;20123;-52
2023/09/14 08:25:17;;;;;;;5.88;4.18;;;18.30;73.40;;;;;;5065091;28;20075;-52
2023/09/14 08:27:44;;;;;;;8.05;4.60;;;18.30;73.40;;;;;;5069376;28;20040;-52
2023/09/14 08:30:11;;;;;;;6.53;5.55;;;18.30;73.60;;;;;;5059994;28;20510;-54
2023/09/14 08:32:38;;;;;;;8.98;4.55;;;18.40;73.60;;;;;;5057455;28;20056;-52
2023/09/14 08:35:28;;;;;;;8.90;4.90;;;18.50;73.60;;;;;;5054554;28;20456;-54
2023/09/14 08:37:55;;;;;;;9.07;4.57;;;18.50;73.40;;;;;;5066290;28;20059;-52
2023/09/14 08:40:23;;;;;;;6.55;4.32;;;18.50;72.90;;;;;;5068501;28;20094;-54
2023/09/14 08:42:52;;;;;;;6.00;4.47;;;18.60;72.80;;;;;;5065668;28;20123;-53
2023/09/14 08:45:23;;;;;;;7.78;4.18;;;18.60;72.50;;;;;;5056123;28;20045;-50
2023/09/14 08:47:52;;;;;;;8.25;4.43;;;18.70;72.50;;;;;;5052549;28;20053;-51
2023/09/14 08:50:22;;;;;;;9.30;5.22;;;18.80;72.10;;;;;;5054450;28;20132;-52
2023/09/14 08:52:52;;;;;;;7.03;4.20;;;18.90;71.90;;;;;;5063988;28;20502;-52
2023/09/14 08:55:20;;;;;;;8.70;4.32;;;19.00;71.70;;;;;;5065196;28;20059;-52
2023/09/14 08:57:48;;;;;;;8.00;4.40;;;19.00;71.60;;;;;;5063952;28;20051;-52
2023/09/14 09:00:15;;;;;;;7.53;5.82;;;19.10;71.40;;;;;;5055439;28;20091;-51
2023/09/14 09:02:43;;;;;;;7.25;5.25;;;19.20;70.60;;;;;;5057896;28;20044;-52
2023/09/14 09:05:12;;;;;;;6.93;5.15;;;19.30;70.50;;;;;;5042841;28;20048;-52
2023/09/14 09:07:40;;;;;;;6.10;3.95;;;19.40;70.70;;;;;;5062947;28;20072;-53
2023/09/14 09:10:28;;;;;;;6.07;4.53;;;19.40;70.50;;;;;;5051932;28;20576;-54
2023/09/14 09:13:00;;;;;;;6.50;4.70;;;19.50;69.00;;;;;;5057813;28;20049;-49
2023/09/14 09:15:36;;;;;;;4.88;3.90;;;19.60;69.80;;;;;;5067839;28;20124;-50
2023/09/14 09:18:05;;;;;;;13.27;6.03;;;19.70;69.90;;;;;;5068300;28;20102;-53
2023/09/14 09:20:33;;;;;;;6.60;4.25;;;19.80;70.00;;;;;;5068934;28;20085;-51
2023/09/14 09:23:00;;;;;;;5.78;4.00;;;19.90;69.90;;;;;;5062039;28;20041;-54
2023/09/14 09:25:31;;;;;;;5.63;4.13;;;20.00;69.40;;;;;;5066217;28;20119;-52
2023/09/14 09:28:03;;;;;;;6.22;3.45;;;20.10;68.20;;;;;;5068177;28;20048;-51
2023/09/14 09:30:35;;;;;;;5.00;3.58;;;20.20;67.70;;;;;;5065191;28;20044;-53
2023/09/14 09:33:04;;;;;;;5.88;3.92;;;20.30;67.30;;;;;;5041329;28;20463;-51
2023/09/14 09:35:34;;;;;;;6.10;3.47;;;20.40;67.10;;;;;;5062417;28;20251;-52
2023/09/14 09:38:15;;;;;;;6.28;3.20;;;20.40;66.70;;;;;;5065892;28;20044;-54
2023/09/14 09:40:44;;;;;;;6.50;3.70;;;20.50;66.10;;;;;;5062601;28;20047;-54
2023/09/14 09:43:15;;;;;;;4.25;3.78;;;20.60;66.20;;;;;;5063847;28;20051;-51
2023/09/14 09:45:43;;;;;;;6.05;2.88;;;20.70;65.50;;;;;;5066282;28;20049;-51
2023/09/14 09:48:10;;;;;;;4.85;3.03;;;20.70;65.60;;;;;;5068422;28;20048;-53
2023/09/14 09:50:37;;;;;;;4.63;2.95;;;20.80;65.00;;;;;;5062822;28;20052;-54
2023/09/14 09:53:10;;;;;;;5.30;3.13;;;20.80;65.20;;;;;;5057777;28;20465;-52
2023/09/14 09:55:37;;;;;;;4.53;3.15;;;20.90;64.30;;;;;;5053549;28;20040;-51
2023/09/14 09:58:06;;;;;;;3.42;2.97;;;20.90;63.70;;;;;;5068278;28;20116;-51
2023/09/14 10:00:36;;;;;;;4.05;3.65;;;21.00;63.70;;;;;;5060760;28;20115;-48
2023/09/14 10:03:03;;;;;;;3.88;3.08;;;21.00;63.40;;;;;;5059305;28;20048;-52
2023/09/14 10:05:39;;;;;;;6.03;3.10;;;21.10;63.70;;;;;;5063290;28;20098;-50
2023/09/14 10:08:12;;;;;;;3.70;3.00;;;21.10;63.20;;;;;;5064878;28;20071;-51
2023/09/14 10:10:40;;;;;;;3.10;2.55;;;21.20;62.80;;;;;;5055428;28;20064;-49
2023/09/14 10:13:08;;;;;;;4.40;2.90;;;21.20;63.10;;;;;;5057817;28;20052;-55
2023/09/14 10:15:38;;;;;;;2.92;2.67;;;21.30;63.10;;;;;;5055313;28;20502;-54
2023/09/14 10:18:06;;;;;;;4.20;2.83;;;21.30;62.50;;;;;;5068123;28;20493;-52
2023/09/14 10:20:34;;;;;;;3.40;2.50;;;21.30;62.40;;;;;;5062190;28;20078;-55
2023/09/14 10:23:01;;;;;;;5.10;2.58;;;21.40;62.20;;;;;;5054467;28;20119;-55
2023/09/14 10:25:28;;;;;;;4.25;2.72;;;21.40;62.00;;;;;;5060809;28;20120;-54
2023/09/14 10:27:56;;;;;;;2.50;1.95;;;21.50;62.10;;;;;;5067969;28;20928;-53
2023/09/14 10:30:23;;;;;;;3.55;2.97;;;21.50;61.80;;;;;;5063118;28;20041;-57
2023/09/14 10:32:57;;;;;;;3.20;2.22;;;21.60;62.00;;;;;;5064819;28;20088;-55
2023/09/14 10:35:23;;;;;;;3.95;2.50;;;21.70;61.00;;;;;;5065345;28;20409;-57
2023/09/14 10:37:50;;;;;;;3.58;2.30;;;21.80;61.10;;;;;;5067858;28;20123;-56
2023/09/14 10:40:17;;;;;;;4.20;2.47;;;21.90;60.80;;;;;;5048751;28;20048;-53
2023/09/14 10:42:45;;;;;;;3.22;2.33;;;22.10;60.70;;;;;;5070768;28;20047;-55
2023/09/14 10:45:13;;;;;;;4.18;2.00;;;22.20;60.90;;;;;;5063379;28;20045;-54
2023/09/14 10:47:45;;;;;;;2.33;2.00;;;22.30;59.80;;;;;;5051312;28;20442;-59
2023/09/14 10:50:18;;;;;;;2.40;2.20;;;22.40;59.20;;;;;;5065306;28;20137;-57
2023/09/14 10:52:46;;;;;;;4.18;2.08;;;22.50;58.80;;;;;;5069888;28;20135;-57
2023/09/14 10:55:13;;;;;;;2.67;2.20;;;22.60;59.00;;;;;;5062719;28;20742;-57
2023/09/14 10:57:41;;;;;;;3.45;2.60;;;22.60;58.20;;;;;;5062857;28;20037;-57
2023/09/14 11:00:09;;;;;;;2.10;1.85;;;22.70;58.70;;;;;;5066170;28;20063;-54
2023/09/14 11:02:51;;;;;;;2.45;1.75;;;22.80;58.10;;;;;;5068722;28;20123;-56
2023/09/14 11:05:19;;;;;;;2.40;2.17;;;22.80;57.40;;;;;;5058391;28;20045;-56
2023/09/14 11:07:53;;;;;;;3.00;2.30;;;22.90;57.40;;;;;;5069315;28;20044;-55
2023/09/14 11:10:22;;;;;;;3.83;2.40;;;22.90;57.90;;;;;;5059980;28;20067;-54
2023/09/14 11:12:49;;;;;;;2.33;2.13;;;22.90;57.50;;;;;;5065895;28;20040;-57
2023/09/14 11:15:20;;;;;;;4.63;2.45;;;23.00;57.30;;;;;;5056036;28;20063;-58
2023/09/14 11:17:52;;;;;;;3.42;2.65;;;23.00;57.50;;;;;;5064179;28;20711;-55
2023/09/14 11:20:24;;;;;;;4.55;2.75;;;23.10;57.60;;;;;;5068312;28;20033;-54
2023/09/14 11:23:00;;;;;;;3.25;2.78;;;23.10;57.40;;;;;;5066903;28;20461;-55
2023/09/14 11:25:33;;;;;;;3.80;2.28;;;23.30;57.70;;;;;;5068867;28;20487;-52
2023/09/14 11:28:21;;;;;;;3.05;2.10;;;23.30;57.40;;;;;;5070482;28;20051;-54
2023/09/14 11:30:51;;;;;;;2.92;2.20;;;23.50;57.60;;;;;;5061174;28;20040;-56
2023/09/14 11:33:21;;;;;;;2.22;1.98;;;23.60;57.30;;;;;;5059738;28;20037;-55
2023/09/14 11:35:51;;;;;;;2.53;2.20;;;23.70;56.10;;;;;;5066105;28;20039;-54
2023/09/14 11:38:26;;;;;;;4.03;1.88;;;23.70;55.80;;;;;;5061339;28;20090;-55
2023/09/14 11:40:55;;;;;;;3.08;2.22;;;23.80;55.50;;;;;;5065822;28;20040;-53
2023/09/14 11:44:01;;;;;;;4.13;2.72;;;23.80;55.30;;;;;;5060539;28;20447;-58
2023/09/14 11:46:49;;;;;;;3.03;2.53;;;23.80;54.90;;;;;;5063833;28;20054;-55
2023/09/14 11:49:20;;;;;;;4.55;2.90;;;23.70;56.30;;;;;;5069944;28;20055;-55
2023/09/14 11:51:53;;;;;;;5.82;2.80;;;23.70;55.90;;;;;;5063226;28;20080;-55
2023/09/14 11:54:20;;;;;;;3.47;2.63;;;23.70;55.60;;;;;;5056839;28;20037;-53
2023/09/14 11:56:48;;;;;;;3.92;2.35;;;23.70;55.40;;;;;;5063816;28;20490;-56
2023/09/14 11:59:31;;;;;;;4.40;3.38;;;23.70;55.30;;;;;;5070192;28;20437;-55
2023/09/14 12:02:00;;;;;;;4.07;2.97;;;23.70;55.30;;;;;;5058618;28;20029;-57
2023/09/14 12:04:28;;;;;;;5.38;3.60;;;23.60;55.20;;;;;;5060795;28;20112;-54
2023/09/14 12:06:55;;;;;;;6.60;4.78;;;23.60;56.20;;;;;;5044050;28;20037;-56
2023/09/14 12:09:39;;;;;;;5.22;3.60;;;23.60;56.50;;;;;;5060585;28;20506;-54
2023/09/14 12:12:13;;;;;;;4.05;3.40;;;23.60;55.70;;;;;;5063062;28;20445;-56
2023/09/14 12:14:45;;;;;;;4.45;3.33;;;23.50;55.40;;;;;;5062825;28;20052;-56
2023/09/14 12:17:19;;;;;;;6.10;3.58;;;23.50;55.30;;;;;;5063929;28;20448;-53
2023/09/14 12:19:50;;;;;;;6.20;4.10;;;23.50;55.10;;;;;;5069610;28;20079;-54
2023/09/14 12:22:21;;;;;;;5.25;4.60;;;23.50;55.40;;;;;;5063013;28;20032;-55
2023/09/14 12:24:49;;;;;;;6.05;4.32;;;23.50;55.70;;;;;;5060767;28;20064;-51
2023/09/14 12:27:20;;;;;;;5.32;4.28;;;23.50;55.90;;;;;;5068997;28;20568;-54
2023/09/14 12:29:48;;;;;;;6.05;4.75;;;23.50;55.70;;;;;;5069168;28;20087;-53
2023/09/14 12:32:16;;;;;;;4.93;3.90;;;23.50;56.50;;;;;;5061946;28;20029;-57
2023/09/14 12:34:44;;;;;;;3.97;3.60;;;23.60;56.70;;;;;;5061516;28;20465;-58
2023/09/14 12:37:16;;;;;;;4.25;3.58;;;23.80;56.20;;;;;;5061332;28;20084;-54
2023/09/14 12:39:48;;;;;;;5.60;4.87;;;23.80;55.30;;;;;;5061695;28;20494;-56
2023/09/14 12:42:19;;;;;;;7.43;4.72;;;24.00;55.30;;;;;;5059504;28;20135;-55
2023/09/14 12:44:47;;;;;;;5.35;4.55;;;24.10;54.70;;;;;;5064073;28;20087;-53
2023/09/14 12:47:13;;;;;;;4.68;4.28;;;24.30;54.70;;;;;;5060388;28;20124;-55
2023/09/14 12:49:40;;;;;;;5.30;4.55;;;24.40;53.70;;;;;;5059311;28;20661;-58
2023/09/14 12:52:07;;;;;;;6.38;4.75;;;24.50;53.00;;;;;;5059577;28;20044;-53
2023/09/14 12:54:35;;;;;;;4.88;4.22;;;24.50;53.00;;;;;;5064918;28;20044;-54
2023/09/14 12:57:10;;;;;;;5.88;4.53;;;24.50;53.00;;;;;;5059946;28;20044;-54
2023/09/14 12:59:37;;;;;;;4.80;4.30;;;24.40;53.00;;;;;;5063849;28;20064;-52